Airfield :
LOGIN :

Register | Disclaimer

   EN    FR    IT 

 










Legend :    VFR   Marginal VFR   IFR   Intensive IFR   Very Intensive IFR
Visi :
Ceiling :
>= 8 km
>= 3000ft
5 to 8 km
1000 to 3000 ft
1500m to 5 km
500 to 1000 ft
800 to 1500m
200 to 500 ft
< 800m
< 200 ft
Symbols :   Thunderstorms  Fog  Heavy snow  Heavy precipitations  Wind > 20 kt
SIGMETs :     Misc.  Thunderstorms  Icing  Turbulence  Mountain Waves  Volcanic Ashes






- Airport Elevation : 1306 ft
- IATA code : ACH


LSZR - Alten Rhein

CURRENT METAR :
  • 112050Z AUTO 12003KT 9999 -RA BKN033 03/02 Q1010

EXPIRED METARs :
  • 112020Z 13004KT 110V190 9999 SCT050 03/02 Q1011 NOSIG RMK P
  • 111950Z 12005KT 9999 -RA BKN040 03/02 Q1011 RERASN NOSIG RMK P
  • 111920Z VRB02KT 9999 -RA BKN040 03/01 Q1011 RERASN NOSIG RMK O
  • 111850Z 16002KT 9999 -DZ BKN040 03/01 Q1011 NOSIG RMK O
  • 111820Z 12003KT 9999 BKN038 03/01 Q1010 NOSIG RMK N

TAF TAF LSZR
Valid from the 11 at 15:00 until the 12 at 00:00 UTC


111425Z 1115/1124 VRB03KT 9999 FEW070 SCT100
TEMPO 1119/1124 RA
PROB30
TEMPO 1119/1124 4000 RASN BKN012
ATIS : +41 71 858 51 66



MET'MAP, your aeronautical weather chart ! - Copyright ORBIFLY December 2007 - Disclaimer

ORBIFLY MET'MAP TEAM :

Programming & Development : Alexandra Zaïnal
Concept & original design : Baudouin d'Aumeries
Assistance for programming : Marc-Olivier Méhu
Technical & hardware support : Manuel Goepfert

Contact : metmap@orbifly.com




SOURCES & CREDITS :

   NOAA